Time;durP1;ratioP1;P1;durP2;ratioP2;P2;SDS_P1;SDS_P2;PMS_P1;PMS_P2;Temp;Humidity;BMP_temperature;BMP_pressure;BME280_temperature;BME280_humidity;BME280_pressure;Samples;Min_cycle;Max_cycle;Signal;HPM_P1;HPM_P2
2023/12/04 00:00:37;;;;;;;9.25;5.85;;;3.00;99.90;;;;;;5056784;28;20184;-61
2023/12/04 00:03:03;;;;;;;8.38;5.85;;;2.90;99.90;;;;;;5056455;28;20175;-60
2023/12/04 00:05:29;;;;;;;8.37;5.80;;;3.10;99.90;;;;;;5056588;28;20232;-60
2023/12/04 00:07:55;;;;;;;8.68;6.38;;;3.10;99.90;;;;;;5056622;28;20305;-60
2023/12/04 00:10:21;;;;;;;10.38;6.40;;;3.20;99.90;;;;;;5056610;28;20183;-60
2023/12/04 00:12:47;;;;;;;8.30;6.15;;;3.00;99.90;;;;;;5038876;28;20178;-60
2023/12/04 00:15:12;;;;;;;7.50;5.78;;;3.10;99.90;;;;;;5056544;28;20179;-60
2023/12/04 00:17:39;;;;;;;8.50;6.47;;;3.20;99.90;;;;;;5056436;28;20193;-60
2023/12/04 00:20:09;;;;;;;8.53;5.47;;;3.20;99.90;;;;;;5056375;28;20214;-60
2023/12/04 00:22:37;;;;;;;7.57;5.47;;;3.20;99.90;;;;;;5056306;28;20542;-61
2023/12/04 00:25:04;;;;;;;8.43;5.88;;;3.20;99.90;;;;;;5056022;28;20546;-60
2023/12/04 00:27:30;;;;;;;8.80;6.13;;;3.10;99.90;;;;;;5056211;28;20203;-61
2023/12/04 00:29:56;;;;;;;8.87;6.00;;;3.20;99.90;;;;;;5056198;28;20686;-60
2023/12/04 00:32:22;;;;;;;8.75;5.45;;;3.20;99.90;;;;;;5056107;28;20233;-60
2023/12/04 00:34:47;;;;;;;8.40;5.15;;;3.20;99.90;;;;;;5055623;28;20183;-60
2023/12/04 00:37:13;;;;;;;7.55;5.68;;;3.10;99.90;;;;;;5038391;28;20185;-61
2023/12/04 00:39:39;;;;;;;9.00;5.57;;;3.10;99.90;;;;;;5055787;28;20261;-60
2023/12/04 00:42:05;;;;;;;7.07;5.10;;;3.00;99.90;;;;;;5056148;28;20179;-60
2023/12/04 00:44:30;;;;;;;7.60;5.40;;;3.00;99.90;;;;;;5056061;28;20632;-60
2023/12/04 00:46:56;;;;;;;8.40;5.60;;;3.00;99.90;;;;;;5055508;28;20339;-60
2023/12/04 00:49:22;;;;;;;9.85;5.70;;;3.00;99.90;;;;;;5055873;28;20187;-60
2023/12/04 00:51:47;;;;;;;7.18;5.28;;;3.00;99.90;;;;;;5055811;28;20210;-60
2023/12/04 00:54:13;;;;;;;8.52;5.65;;;3.00;99.90;;;;;;5055785;28;20171;-60
2023/12/04 00:56:39;;;;;;;8.40;5.18;;;3.00;99.90;;;;;;5055727;28;20578;-61
2023/12/04 00:59:06;;;;;;;7.47;5.43;;;3.00;99.90;;;;;;5055770;28;20501;-61
2023/12/04 01:01:32;;;;;;;8.63;5.63;;;2.90;99.90;;;;;;5055656;28;20182;-61
2023/12/04 01:03:59;;;;;;;9.05;6.03;;;2.90;99.90;;;;;;5055324;28;20273;-61
2023/12/04 01:06:25;;;;;;;8.17;5.60;;;2.90;99.90;;;;;;5055508;28;20231;-61
2023/12/04 01:08:51;;;;;;;6.75;5.00;;;3.00;99.90;;;;;;5055485;28;20183;-61
2023/12/04 01:11:19;;;;;;;8.70;6.28;;;3.00;99.90;;;;;;5055769;28;20187;-59
2023/12/04 01:13:45;;;;;;;8.20;5.47;;;3.00;99.90;;;;;;5055378;28;20525;-59
2023/12/04 01:16:11;;;;;;;8.00;5.43;;;3.00;99.90;;;;;;5055330;28;20186;-59
2023/12/04 01:18:36;;;;;;;8.15;5.50;;;3.10;99.90;;;;;;5055337;28;20575;-61
2023/12/04 01:21:02;;;;;;;9.02;6.13;;;3.10;99.90;;;;;;5054981;28;20569;-59
2023/12/04 01:23:28;;;;;;;8.37;5.50;;;3.10;99.90;;;;;;5055200;28;20178;-61
2023/12/04 01:25:53;;;;;;;8.80;5.75;;;3.20;99.90;;;;;;5055134;28;20221;-61
2023/12/04 01:28:19;;;;;;;7.47;5.57;;;3.10;99.90;;;;;;5054887;28;20546;-61
2023/12/04 01:30:45;;;;;;;7.88;5.43;;;3.10;99.90;;;;;;5055422;28;20183;-60
2023/12/04 01:33:10;;;;;;;7.95;5.47;;;3.20;99.90;;;;;;5055017;28;20191;-59
2023/12/04 01:35:36;;;;;;;8.13;5.60;;;3.20;99.90;;;;;;5055138;28;20179;-59
2023/12/04 01:38:01;;;;;;;6.97;5.15;;;3.10;99.90;;;;;;5054958;28;20203;-62
2023/12/04 01:40:27;;;;;;;7.93;5.32;;;3.10;99.90;;;;;;5055200;28;20645;-59
2023/12/04 01:42:53;;;;;;;7.72;5.40;;;3.20;99.90;;;;;;5054880;28;20650;-61
2023/12/04 01:45:19;;;;;;;6.57;4.88;;;3.10;99.90;;;;;;5054175;28;20658;-61
2023/12/04 01:47:45;;;;;;;9.07;5.68;;;3.20;99.90;;;;;;5054423;28;20570;-59
2023/12/04 01:50:12;;;;;;;9.32;4.93;;;3.20;99.90;;;;;;5054767;28;20685;-61
2023/12/04 01:52:39;;;;;;;7.03;5.38;;;3.20;99.90;;;;;;5054655;28;20201;-59
2023/12/04 01:55:06;;;;;;;7.20;5.28;;;3.20;99.90;;;;;;5054348;28;20579;-61
2023/12/04 01:57:31;;;;;;;9.18;5.57;;;3.10;99.90;;;;;;5054711;28;20182;-61
2023/12/04 01:59:57;;;;;;;8.80;5.78;;;3.20;99.90;;;;;;5054558;28;20513;-60
2023/12/04 02:02:23;;;;;;;7.47;5.57;;;3.30;99.90;;;;;;5054441;28;20181;-61
2023/12/04 02:04:49;;;;;;;7.32;5.28;;;3.20;99.90;;;;;;5054137;28;20227;-61
2023/12/04 02:07:15;;;;;;;7.60;5.53;;;3.20;99.90;;;;;;5054001;28;20217;-61
2023/12/04 02:09:40;;;;;;;8.27;5.38;;;3.30;99.90;;;;;;5054376;28;20266;-61
2023/12/04 02:12:06;;;;;;;8.02;5.30;;;3.20;99.90;;;;;;5054332;28;20178;-60
2023/12/04 02:14:32;;;;;;;8.05;5.00;;;3.30;99.90;;;;;;5054255;28;20186;-60
2023/12/04 02:17:00;;;;;;;8.30;5.38;;;3.20;99.90;;;;;;5053892;28;20189;-61
2023/12/04 02:19:26;;;;;;;8.75;5.75;;;3.20;99.90;;;;;;5054157;28;20182;-60
2023/12/04 02:21:52;;;;;;;8.90;6.18;;;3.30;99.90;;;;;;5054365;28;20179;-60
2023/12/04 02:24:17;;;;;;;7.85;5.55;;;3.40;99.90;;;;;;5054155;28;20186;-60
2023/12/04 02:26:58;;;;;;;7.95;5.10;;;3.40;99.90;;;;;;5053950;28;20211;-60
2023/12/04 02:29:31;;;;;;;8.18;5.47;;;3.30;99.90;;;;;;5053752;28;20159;-61
2023/12/04 02:31:57;;;;;;;7.15;5.00;;;3.30;99.90;;;;;;5054065;28;20166;-61
2023/12/04 02:34:24;;;;;;;7.25;5.10;;;3.20;99.90;;;;;;5053907;28;20170;-61
2023/12/04 02:36:51;;;;;;;7.55;5.47;;;3.30;99.90;;;;;;5053567;28;20181;-61
2023/12/04 02:39:17;;;;;;;6.75;4.40;;;3.30;99.90;;;;;;5053766;28;20183;-61
2023/12/04 02:41:43;;;;;;;6.85;4.65;;;3.40;99.90;;;;;;5053820;28;20178;-61
2023/12/04 02:44:08;;;;;;;7.80;5.38;;;3.40;99.90;;;;;;5053757;28;20180;-61
2023/12/04 02:46:34;;;;;;;6.93;4.97;;;3.50;99.90;;;;;;5053340;28;20209;-60
2023/12/04 02:49:00;;;;;;;8.52;5.30;;;3.50;99.90;;;;;;5053714;28;20171;-61
2023/12/04 02:51:26;;;;;;;7.57;5.57;;;3.40;99.90;;;;;;5053628;28;20217;-59
2023/12/04 02:53:52;;;;;;;6.25;4.68;;;3.50;99.90;;;;;;5053516;28;20180;-61
2023/12/04 02:56:17;;;;;;;6.65;4.60;;;3.50;99.90;;;;;;5053425;28;20191;-60
2023/12/04 02:58:43;;;;;;;7.32;4.55;;;3.50;99.90;;;;;;5053552;28;20179;-61
2023/12/04 03:01:09;;;;;;;6.45;4.60;;;3.50;99.90;;;;;;5053444;28;20529;-59
2023/12/04 03:03:34;;;;;;;6.72;4.85;;;3.60;99.90;;;;;;5053642;28;20535;-59
2023/12/04 03:06:00;;;;;;;6.60;4.30;;;3.50;99.90;;;;;;5053385;28;20233;-61
2023/12/04 03:08:26;;;;;;;5.47;3.90;;;3.50;99.90;;;;;;5053526;28;20177;-59
2023/12/04 03:10:51;;;;;;;5.78;4.25;;;3.50;99.90;;;;;;5053374;28;20178;-60
2023/12/04 03:13:17;;;;;;;6.28;4.22;;;3.60;99.90;;;;;;5053124;28;20261;-59
2023/12/04 03:15:42;;;;;;;6.13;4.18;;;3.60;99.90;;;;;;5053472;28;20657;-59
2023/12/04 03:18:08;;;;;;;6.15;4.32;;;3.60;99.90;;;;;;5053384;28;20186;-59
2023/12/04 03:20:34;;;;;;;6.35;4.07;;;3.60;99.90;;;;;;5053321;28;20174;-59
2023/12/04 03:22:59;;;;;;;5.45;4.28;;;3.60;99.90;;;;;;5053506;28;20586;-58
2023/12/04 03:25:25;;;;;;;6.35;4.22;;;3.70;99.90;;;;;;5053112;28;20190;-59
2023/12/04 03:27:50;;;;;;;6.47;4.63;;;3.70;99.90;;;;;;5052910;28;20265;-59
2023/12/04 03:30:16;;;;;;;6.72;3.85;;;3.60;99.90;;;;;;5053179;28;20267;-59
2023/12/04 03:32:42;;;;;;;5.32;4.38;;;3.60;99.90;;;;;;5053312;28;20183;-59
2023/12/04 03:35:07;;;;;;;5.82;4.28;;;3.60;99.90;;;;;;5053204;28;20316;-61
2023/12/04 03:37:33;;;;;;;5.32;4.20;;;3.60;99.90;;;;;;5053176;28;20221;-59
2023/12/04 03:39:59;;;;;;;6.65;4.63;;;3.60;99.90;;;;;;5053170;28;20174;-59
2023/12/04 03:42:25;;;;;;;6.72;4.82;;;3.60;99.90;;;;;;5053095;28;20168;-59
2023/12/04 03:44:50;;;;;;;6.88;5.05;;;3.50;99.90;;;;;;5053093;28;20193;-60
2023/12/04 03:47:16;;;;;;;5.93;4.43;;;3.50;99.90;;;;;;5053023;28;20702;-60
2023/12/04 03:49:42;;;;;;;6.03;4.45;;;3.50;99.90;;;;;;5053045;28;20653;-60
2023/12/04 03:52:07;;;;;;;7.43;4.72;;;3.60;99.90;;;;;;5052854;28;20176;-60
2023/12/04 03:54:33;;;;;;;6.68;4.63;;;3.60;99.90;;;;;;5053019;28;20178;-59
2023/12/04 03:56:58;;;;;;;6.53;4.68;;;3.70;99.90;;;;;;5053264;28;20179;-59
2023/12/04 03:59:24;;;;;;;6.20;4.13;;;3.60;99.90;;;;;;5053114;28;20179;-59
2023/12/04 04:01:50;;;;;;;6.25;4.40;;;3.60;99.90;;;;;;5052921;28;20229;-59
2023/12/04 04:04:15;;;;;;;5.90;4.70;;;3.60;99.90;;;;;;5052703;28;20178;-59
2023/12/04 04:06:41;;;;;;;6.57;4.63;;;3.60;99.90;;;;;;5053129;28;20203;-59
2023/12/04 04:09:06;;;;;;;5.88;4.32;;;3.60;99.90;;;;;;5054450;28;20628;-59
2023/12/04 04:11:32;;;;;;;8.13;5.18;;;3.60;99.90;;;;;;5056348;28;20189;-59
2023/12/04 04:13:58;;;;;;;6.53;4.25;;;3.60;99.90;;;;;;5056569;28;20187;-59
2023/12/04 04:16:23;;;;;;;5.50;4.15;;;3.60;99.90;;;;;;5056258;28;20576;-59
2023/12/04 04:18:49;;;;;;;6.82;4.60;;;3.60;99.90;;;;;;5056538;28;20613;-59
2023/12/04 04:21:15;;;;;;;6.20;4.30;;;3.50;99.90;;;;;;5056487;28;20505;-59
2023/12/04 04:23:40;;;;;;;6.47;4.30;;;3.60;99.90;;;;;;5056291;28;20651;-59
2023/12/04 04:26:06;;;;;;;7.63;4.90;;;3.60;99.90;;;;;;5055946;28;20213;-59
2023/12/04 04:28:32;;;;;;;5.18;4.22;;;3.60;99.90;;;;;;5056375;28;20229;-59
2023/12/04 04:30:58;;;;;;;5.82;4.28;;;3.50;99.90;;;;;;5056124;28;20214;-59
2023/12/04 04:33:24;;;;;;;6.28;4.60;;;3.50;99.90;;;;;;5056202;28;20174;-59
2023/12/04 04:35:49;;;;;;;5.97;4.63;;;3.40;99.90;;;;;;5056296;28;20183;-62
2023/12/04 04:38:15;;;;;;;7.03;4.90;;;3.50;99.90;;;;;;5056102;28;20257;-59
2023/12/04 04:40:43;;;;;;;5.95;4.10;;;3.60;99.90;;;;;;5056138;28;20187;-59
2023/12/04 04:43:10;;;;;;;6.47;4.60;;;3.60;99.90;;;;;;5055902;28;20182;-60
2023/12/04 04:45:35;;;;;;;6.53;4.40;;;3.70;99.90;;;;;;5055869;28;20175;-59
2023/12/04 04:48:01;;;;;;;5.30;4.20;;;3.60;99.90;;;;;;5055926;28;20199;-59
2023/12/04 04:50:27;;;;;;;6.57;4.53;;;3.60;99.90;;;;;;5055915;28;20178;-59
2023/12/04 04:52:52;;;;;;;5.13;3.78;;;3.70;99.90;;;;;;5055555;28;20210;-59
2023/12/04 04:55:18;;;;;;;6.13;4.22;;;3.70;99.90;;;;;;5055544;28;20182;-59
2023/12/04 04:57:44;;;;;;;6.40;4.40;;;3.70;99.90;;;;;;5055739;28;20180;-59
2023/12/04 05:00:10;;;;;;;6.80;4.43;;;3.70;99.90;;;;;;5055643;28;20677;-59
2023/12/04 05:02:36;;;;;;;5.13;4.07;;;3.70;99.90;;;;;;5055573;28;20193;-59
2023/12/04 05:05:03;;;;;;;6.72;4.43;;;3.60;99.90;;;;;;5055668;28;20230;-59
2023/12/04 05:07:29;;;;;;;5.20;4.28;;;3.60;99.90;;;;;;5055560;28;20238;-59
2023/12/04 05:09:54;;;;;;;5.45;4.13;;;3.60;99.90;;;;;;5055565;28;20206;-59
2023/12/04 05:12:20;;;;;;;5.60;4.13;;;3.60;99.90;;;;;;5055693;28;20241;-59
2023/12/04 05:14:46;;;;;;;5.70;4.38;;;3.60;99.90;;;;;;5055456;28;20197;-59
2023/12/04 05:17:11;;;;;;;4.50;3.60;;;3.60;99.90;;;;;;5055423;28;20615;-59
2023/12/04 05:19:37;;;;;;;6.78;3.65;;;3.60;99.90;;;;;;5055271;28;20265;-59
2023/12/04 05:22:03;;;;;;;5.22;3.92;;;3.70;99.90;;;;;;5023682;28;20181;-59
2023/12/04 05:24:29;;;;;;;5.18;3.80;;;3.70;99.90;;;;;;5035461;28;20229;-59
2023/12/04 05:26:54;;;;;;;4.75;3.95;;;3.80;99.90;;;;;;5035168;28;20234;-59
2023/12/04 05:29:20;;;;;;;6.03;4.07;;;3.90;99.90;;;;;;5034956;28;20183;-59
2023/12/04 05:31:46;;;;;;;5.28;4.20;;;3.80;99.90;;;;;;5035338;28;20536;-59
2023/12/04 05:34:12;;;;;;;5.30;3.97;;;3.80;99.90;;;;;;5035086;28;20193;-61
2023/12/04 05:36:38;;;;;;;4.88;3.80;;;3.80;99.90;;;;;;5035104;28;20183;-59
2023/12/04 05:39:04;;;;;;;7.50;3.67;;;3.90;99.90;;;;;;5034950;28;20536;-60
2023/12/04 05:41:30;;;;;;;4.10;3.47;;;3.90;99.90;;;;;;5034962;28;20270;-59
2023/12/04 05:43:56;;;;;;;5.20;4.20;;;3.90;99.90;;;;;;5035008;28;20258;-59
2023/12/04 05:46:21;;;;;;;4.13;3.17;;;3.90;99.90;;;;;;5034528;28;20627;-59
2023/12/04 05:48:48;;;;;;;5.28;3.70;;;3.90;99.90;;;;;;5034887;28;20182;-59
2023/12/04 05:51:15;;;;;;;5.18;3.70;;;3.90;99.90;;;;;;5034495;28;20616;-60
2023/12/04 05:53:40;;;;;;;5.15;3.70;;;3.90;99.90;;;;;;5034363;28;20191;-59
2023/12/04 05:56:08;;;;;;;20.05;13.02;;;3.80;99.90;;;;;;5034723;28;20183;-58
2023/12/04 05:58:34;;;;;;;6.75;4.30;;;3.80;99.90;;;;;;5034568;28;20183;-58
2023/12/04 06:01:00;;;;;;;7.03;5.55;;;3.90;99.90;;;;;;5034321;28;20270;-55
2023/12/04 06:03:26;;;;;;;5.63;4.43;;;3.80;99.90;;;;;;5034316;28;20695;-60
2023/12/04 06:05:51;;;;;;;7.38;5.93;;;3.90;99.90;;;;;;5034582;28;20227;-62
2023/12/04 06:08:18;;;;;;;7.20;5.15;;;3.80;99.90;;;;;;5034526;28;20263;-62
2023/12/04 06:10:44;;;;;;;4.93;3.80;;;3.80;99.90;;;;;;5034396;28;20183;-62
2023/12/04 06:13:11;;;;;;;19.98;17.85;;;3.70;99.90;;;;;;5034321;28;20203;-62
2023/12/04 06:15:36;;;;;;;17.08;15.38;;;3.80;99.90;;;;;;5034335;28;20245;-62
2023/12/04 06:18:02;;;;;;;8.27;7.18;;;3.90;99.90;;;;;;5034016;28;20579;-62
2023/12/04 06:20:27;;;;;;;4.82;3.75;;;3.80;99.90;;;;;;5034254;28;20182;-62
2023/12/04 06:22:53;;;;;;;4.85;3.80;;;3.80;99.90;;;;;;5034517;28;20644;-62
2023/12/04 06:25:19;;;;;;;5.88;4.47;;;3.90;99.90;;;;;;5034199;28;20225;-63
2023/12/04 06:27:45;;;;;;;6.45;4.35;;;3.90;99.90;;;;;;5034068;28;20265;-61
2023/12/04 06:30:11;;;;;;;5.75;4.32;;;3.80;99.90;;;;;;5033781;28;20183;-62
2023/12/04 06:32:37;;;;;;;4.97;4.07;;;3.80;99.90;;;;;;5033530;28;20175;-62
2023/12/04 06:35:03;;;;;;;5.28;3.90;;;3.80;99.90;;;;;;5033730;28;20186;-62
2023/12/04 06:37:29;;;;;;;6.63;3.78;;;3.80;99.90;;;;;;5033813;28;20278;-62
2023/12/04 06:40:02;;;;;;;5.82;4.25;;;3.80;99.90;;;;;;5033645;28;20262;-62
2023/12/04 06:42:28;;;;;;;5.38;3.78;;;3.80;99.90;;;;;;5033813;28;20254;-62
2023/12/04 06:44:54;;;;;;;6.15;4.13;;;3.80;99.90;;;;;;5033919;28;20262;-62
2023/12/04 06:47:23;;;;;;;6.55;4.22;;;3.80;99.90;;;;;;5016012;28;20741;-62
2023/12/04 06:49:48;;;;;;;4.95;4.03;;;3.80;99.90;;;;;;5033809;28;20167;-62
2023/12/04 06:52:14;;;;;;;6.63;4.32;;;3.80;99.90;;;;;;5033751;28;20217;-62
2023/12/04 06:54:40;;;;;;;5.45;3.90;;;3.90;99.90;;;;;;5033759;28;20320;-64
2023/12/04 06:57:05;;;;;;;5.03;3.90;;;3.80;99.90;;;;;;5033675;28;20274;-63
2023/12/04 06:59:32;;;;;;;5.45;4.22;;;3.80;99.90;;;;;;5033634;28;20632;-62
2023/12/04 07:01:57;;;;;;;7.00;4.28;;;3.80;99.90;;;;;;5033641;28;20183;-61
2023/12/04 07:04:23;;;;;;;5.57;4.38;;;3.90;99.90;;;;;;5033418;28;20190;-62
2023/12/04 07:06:49;;;;;;;5.50;3.33;;;3.90;99.90;;;;;;5033569;28;20243;-62
2023/12/04 07:09:16;;;;;;;4.72;3.30;;;4.00;99.90;;;;;;5033600;28;20540;-62
2023/12/04 07:11:42;;;;;;;4.30;3.50;;;4.10;99.90;;;;;;5033149;28;20553;-63
2023/12/04 07:14:09;;;;;;;3.95;3.42;;;4.10;99.90;;;;;;5033528;28;20180;-63
2023/12/04 07:16:42;;;;;;;4.13;3.42;;;4.20;99.90;;;;;;5033461;28;20584;-62
2023/12/04 07:19:09;;;;;;;4.20;3.20;;;4.20;99.90;;;;;;5033438;28;20538;-62
2023/12/04 07:21:35;;;;;;;4.32;3.40;;;4.20;99.90;;;;;;5033314;28;20215;-62
2023/12/04 07:24:01;;;;;;;3.63;2.90;;;4.40;99.90;;;;;;5033346;28;20213;-62
2023/12/04 07:26:26;;;;;;;4.35;3.50;;;4.30;99.90;;;;;;5033327;28;20207;-62
2023/12/04 07:28:52;;;;;;;3.63;2.92;;;4.20;99.90;;;;;;5033337;28;20191;-62
2023/12/04 07:31:17;;;;;;;4.70;3.40;;;4.20;99.90;;;;;;5033341;28;20262;-62
2023/12/04 07:33:43;;;;;;;4.63;3.17;;;4.20;99.90;;;;;;5033318;28;20186;-63
2023/12/04 07:36:09;;;;;;;5.18;3.45;;;4.40;99.90;;;;;;5032974;28;20718;-62
2023/12/04 07:38:34;;;;;;;4.90;3.70;;;4.40;99.90;;;;;;5033253;28;20183;-62
2023/12/04 07:41:00;;;;;;;4.40;3.25;;;4.40;99.90;;;;;;5033300;28;20680;-62
2023/12/04 07:43:27;;;;;;;4.32;3.33;;;4.40;99.90;;;;;;5033861;28;20180;-62
2023/12/04 07:45:55;;;;;;;4.85;3.88;;;4.40;99.90;;;;;;5036713;28;20551;-64
2023/12/04 07:48:20;;;;;;;4.30;3.45;;;4.40;99.90;;;;;;5019827;28;20632;-63
2023/12/04 07:50:46;;;;;;;4.28;3.40;;;4.30;99.90;;;;;;5037079;28;20183;-62
2023/12/04 07:53:13;;;;;;;4.80;3.20;;;4.40;99.90;;;;;;5037058;28;20187;-62
2023/12/04 07:55:38;;;;;;;4.13;3.40;;;4.50;99.90;;;;;;5036907;28;20188;-62
2023/12/04 07:58:04;;;;;;;4.05;3.65;;;4.50;99.90;;;;;;5036993;28;20552;-62
2023/12/04 08:00:30;;;;;;;4.45;3.35;;;4.50;99.90;;;;;;5036932;28;20780;-63
2023/12/04 08:02:55;;;;;;;4.75;3.45;;;4.50;99.90;;;;;;5036481;28;20663;-63
2023/12/04 08:05:21;;;;;;;5.40;3.85;;;4.50;99.90;;;;;;5036376;28;20234;-61
2023/12/04 08:07:47;;;;;;;4.10;3.70;;;4.50;99.90;;;;;;5019043;28;20235;-62
2023/12/04 08:10:14;;;;;;;6.07;4.03;;;4.50;99.90;;;;;;5036723;28;20179;-62
2023/12/04 08:12:39;;;;;;;4.95;3.83;;;4.50;99.90;;;;;;5036676;28;20191;-62
2023/12/04 08:15:06;;;;;;;5.70;3.83;;;4.50;99.90;;;;;;5036611;28;20524;-62
2023/12/04 08:17:31;;;;;;;5.43;3.90;;;4.50;99.90;;;;;;5036559;28;20381;-62
2023/12/04 08:19:57;;;;;;;6.20;3.92;;;4.70;99.90;;;;;;5036600;28;20199;-62
2023/12/04 08:22:23;;;;;;;4.82;3.85;;;4.70;99.90;;;;;;5036506;28;20253;-62
2023/12/04 08:24:48;;;;;;;4.65;3.53;;;4.70;99.90;;;;;;5036451;28;20270;-62
2023/12/04 08:27:14;;;;;;;6.93;4.50;;;4.70;99.90;;;;;;5036360;28;20699;-62
2023/12/04 08:29:40;;;;;;;5.70;4.00;;;4.70;99.90;;;;;;5036416;28;20579;-63
2023/12/04 08:32:06;;;;;;;5.05;4.00;;;4.80;99.90;;;;;;5036331;28;20175;-62
2023/12/04 08:34:32;;;;;;;5.30;3.80;;;4.70;99.90;;;;;;5035953;28;20232;-62
2023/12/04 08:36:57;;;;;;;4.72;4.00;;;4.80;99.90;;;;;;5036194;28;20182;-62
2023/12/04 08:39:23;;;;;;;6.03;3.60;;;4.80;99.90;;;;;;5036208;28;20182;-62
2023/12/04 08:41:49;;;;;;;4.63;3.95;;;4.70;99.90;;;;;;5036089;28;20180;-62
2023/12/04 08:44:15;;;;;;;4.68;3.67;;;4.80;99.90;;;;;;5036038;28;20190;-62
2023/12/04 08:46:43;;;;;;;6.88;4.10;;;4.80;99.90;;;;;;5035677;28;20302;-62
2023/12/04 08:49:09;;;;;;;6.28;4.28;;;4.90;99.90;;;;;;5018535;28;20190;-62
2023/12/04 08:51:34;;;;;;;5.60;4.22;;;4.80;99.90;;;;;;5036001;28;20183;-61
2023/12/04 08:54:00;;;;;;;5.10;3.90;;;4.80;99.90;;;;;;5035494;28;20573;-62
2023/12/04 08:56:26;;;;;;;4.93;3.83;;;4.80;99.90;;;;;;5035897;28;20237;-62
2023/12/04 08:58:51;;;;;;;5.57;4.22;;;4.90;99.90;;;;;;5035884;28;20179;-62
2023/12/04 09:01:17;;;;;;;6.13;4.20;;;4.90;99.90;;;;;;5035737;28;20309;-62
2023/12/04 09:03:43;;;;;;;5.75;4.30;;;4.90;99.90;;;;;;5035852;28;20577;-62
2023/12/04 09:06:09;;;;;;;4.93;4.30;;;4.90;99.90;;;;;;5035228;28;20687;-62
2023/12/04 09:08:35;;;;;;;5.53;4.15;;;4.90;99.90;;;;;;5018153;28;20269;-62
2023/12/04 09:11:00;;;;;;;6.00;4.80;;;5.00;99.90;;;;;;5035564;28;20599;-62
2023/12/04 09:13:26;;;;;;;4.95;4.25;;;4.80;99.90;;;;;;5035704;28;20246;-62
2023/12/04 09:15:52;;;;;;;6.82;4.95;;;4.80;99.90;;;;;;5035459;28;20563;-62
2023/12/04 09:18:18;;;;;;;6.22;4.47;;;4.80;99.90;;;;;;5035162;28;20234;-62
2023/12/04 09:20:43;;;;;;;6.93;4.90;;;4.90;99.90;;;;;;5035528;28;20204;-62
2023/12/04 09:23:09;;;;;;;7.20;4.93;;;5.00;99.90;;;;;;5035456;28;20259;-61
2023/12/04 09:25:35;;;;;;;4.32;3.90;;;4.80;99.90;;;;;;5035330;28;20175;-62
2023/12/04 09:28:01;;;;;;;6.53;4.38;;;4.90;99.90;;;;;;5035217;28;20664;-62
2023/12/04 09:30:26;;;;;;;5.68;3.83;;;4.90;99.90;;;;;;5035336;28;20186;-62
2023/12/04 09:32:52;;;;;;;5.75;4.88;;;4.90;99.90;;;;;;5035440;28;20183;-62
2023/12/04 09:35:18;;;;;;;5.82;4.47;;;5.10;99.90;;;;;;5034872;28;20187;-62
2023/12/04 09:37:45;;;;;;;5.63;4.43;;;5.10;99.90;;;;;;5035041;28;20190;-62
2023/12/04 09:40:12;;;;;;;5.40;4.10;;;5.10;99.90;;;;;;5034964;28;20687;-62
2023/12/04 09:42:38;;;;;;;5.53;4.40;;;5.10;99.90;;;;;;5035022;28;20186;-62
2023/12/04 09:45:05;;;;;;;6.03;4.10;;;5.10;99.90;;;;;;5034881;28;20198;-62
2023/12/04 09:47:32;;;;;;;5.38;4.13;;;5.20;99.90;;;;;;5034851;28;20206;-63
2023/12/04 09:49:58;;;;;;;4.78;3.92;;;5.20;99.90;;;;;;5034868;28;20168;-62
2023/12/04 09:52:26;;;;;;;5.38;4.43;;;5.30;99.90;;;;;;5034873;28;20258;-62
2023/12/04 09:54:52;;;;;;;6.97;4.30;;;5.20;99.90;;;;;;5034772;28;20178;-62
2023/12/04 09:57:18;;;;;;;4.57;3.65;;;5.20;99.90;;;;;;5034655;28;20179;-63
2023/12/04 09:59:45;;;;;;;6.47;4.28;;;5.20;99.90;;;;;;5034701;28;20575;-62
2023/12/04 10:02:11;;;;;;;4.95;3.97;;;5.30;99.90;;;;;;5034637;28;20181;-62
2023/12/04 10:04:37;;;;;;;5.93;4.13;;;5.20;99.90;;;;;;5034245;28;20577;-62
2023/12/04 10:07:04;;;;;;;5.43;4.30;;;5.30;99.90;;;;;;5033675;28;20217;-62
2023/12/04 10:09:30;;;;;;;5.45;4.43;;;5.20;99.90;;;;;;5034473;28;20206;-62
2023/12/04 10:11:59;;;;;;;5.22;4.20;;;5.20;99.90;;;;;;5034426;28;20171;-62
2023/12/04 10:14:25;;;;;;;7.70;4.70;;;5.20;99.90;;;;;;5034372;28;20197;-62
2023/12/04 10:16:52;;;;;;;4.38;3.80;;;5.10;99.90;;;;;;5034270;28;20191;-62
2023/12/04 10:19:26;;;;;;;4.68;4.10;;;5.20;99.90;;;;;;5034265;28;20240;-62
2023/12/04 10:21:54;;;;;;;5.40;4.63;;;5.00;99.90;;;;;;5016626;28;20171;-62
2023/12/04 10:24:35;;;;;;;8.45;5.93;;;5.00;99.90;;;;;;5034197;28;20179;-62
2023/12/04 10:27:06;;;;;;;7.55;5.25;;;5.00;99.90;;;;;;5034097;28;20548;-62
2023/12/04 10:29:47;;;;;;;6.50;4.78;;;4.90;99.90;;;;;;5034165;28;20163;-62
2023/12/04 10:32:12;;;;;;;6.82;4.60;;;4.90;99.90;;;;;;5034093;28;20175;-62
2023/12/04 10:34:39;;;;;;;5.35;4.53;;;5.00;99.90;;;;;;5034058;28;20174;-62
2023/12/04 10:37:05;;;;;;;6.68;4.85;;;4.90;99.90;;;;;;5033928;28;20640;-62
2023/12/04 10:39:44;;;;;;;7.72;4.90;;;4.90;99.90;;;;;;5033934;28;20329;-62
2023/12/04 10:42:10;;;;;;;6.45;5.07;;;5.00;99.90;;;;;;5034053;28;20171;-62
2023/12/04 10:44:35;;;;;;;6.22;4.70;;;5.00;99.90;;;;;;5033963;28;20175;-62
2023/12/04 10:47:01;;;;;;;6.20;4.80;;;5.00;99.90;;;;;;5033951;28;20214;-62
2023/12/04 10:49:31;;;;;;;7.85;5.20;;;4.90;99.90;;;;;;5033841;28;20195;-62
2023/12/04 10:51:59;;;;;;;6.18;4.82;;;4.90;99.90;;;;;;5033717;28;20183;-62
2023/12/04 10:54:25;;;;;;;6.68;5.22;;;4.90;99.90;;;;;;5033771;28;20233;-62
2023/12/04 10:56:53;;;;;;;5.15;4.50;;;4.80;99.90;;;;;;5033721;28;20183;-62
2023/12/04 10:59:25;;;;;;;6.95;5.22;;;4.90;99.90;;;;;;5033692;28;20262;-62
2023/12/04 11:01:54;;;;;;;6.05;4.78;;;4.80;99.90;;;;;;5033772;28;20568;-64
2023/12/04 11:04:23;;;;;;;6.88;4.85;;;4.70;99.90;;;;;;5033403;28;20171;-63
2023/12/04 11:06:52;;;;;;;6.60;4.85;;;4.70;99.90;;;;;;5033862;28;20213;-61
2023/12/04 11:09:20;;;;;;;6.47;5.18;;;4.70;99.90;;;;;;5033289;28;20521;-61
2023/12/04 11:11:51;;;;;;;5.05;4.55;;;4.70;99.90;;;;;;5033438;28;20181;-61
2023/12/04 11:14:22;;;;;;;6.85;5.10;;;4.60;99.90;;;;;;5033552;28;20306;-62
2023/12/04 11:16:54;;;;;;;6.88;4.82;;;4.60;99.90;;;;;;5033454;28;20221;-62
2023/12/04 11:19:53;;;;;;;6.70;4.85;;;4.80;99.90;;;;;;5033471;28;20182;-62
2023/12/04 11:22:20;;;;;;;5.78;4.72;;;4.70;99.90;;;;;;5033509;28;20621;-62
2023/12/04 11:24:48;;;;;;;5.97;4.60;;;4.70;99.90;;;;;;5033444;28;20167;-63
2023/12/04 11:27:18;;;;;;;14.52;10.95;;;4.70;99.90;;;;;;5033203;28;20265;-61
2023/12/04 11:29:46;;;;;;;6.57;4.90;;;4.70;99.90;;;;;;5033423;28;20202;-64
2023/12/04 11:32:16;;;;;;;6.47;4.72;;;4.70;99.90;;;;;;5033226;28;20625;-63
2023/12/04 11:34:55;;;;;;;9.45;5.18;;;4.70;99.90;;;;;;5033291;28;20182;-63
2023/12/04 11:37:23;;;;;;;7.03;5.57;;;4.60;99.90;;;;;;5033232;28;20167;-63
2023/12/04 11:39:50;;;;;;;7.00;5.35;;;4.60;99.90;;;;;;5033230;28;20182;-63
2023/12/04 11:42:22;;;;;;;6.18;5.15;;;4.70;99.90;;;;;;5033391;28;20171;-63
2023/12/04 11:44:49;;;;;;;8.95;5.97;;;4.70;99.90;;;;;;5033460;28;20167;-62
2023/12/04 11:47:16;;;;;;;8.30;5.93;;;4.50;99.90;;;;;;5032958;28;20210;-62
2023/12/04 11:49:41;;;;;;;7.53;6.05;;;4.60;99.90;;;;;;5032586;28;20179;-63
2023/12/04 11:52:09;;;;;;;8.18;6.20;;;4.50;99.90;;;;;;5032745;28;20179;-62
2023/12/04 11:55:05;;;;;;;6.90;5.43;;;4.60;99.90;;;;;;5032697;28;20195;-62
2023/12/04 11:57:39;;;;;;;7.00;5.28;;;4.60;99.90;;;;;;5032793;28;20279;-62
2023/12/04 12:00:12;;;;;;;8.27;5.90;;;4.60;99.90;;;;;;5032645;28;20231;-62
2023/12/04 12:02:40;;;;;;;7.28;6.00;;;4.60;99.90;;;;;;5032336;28;20221;-63
2023/12/04 12:05:07;;;;;;;8.43;6.30;;;4.70;99.90;;;;;;5032431;28;20624;-62
2023/12/04 12:07:34;;;;;;;8.30;6.05;;;4.60;99.90;;;;;;5032426;28;20564;-61
2023/12/04 12:09:59;;;;;;;8.55;6.50;;;4.50;99.90;;;;;;5014771;28;20546;-62
2023/12/04 12:12:27;;;;;;;10.23;7.57;;;4.60;99.90;;;;;;5032451;28;20182;-62
2023/12/04 12:14:53;;;;;;;9.45;7.15;;;4.50;99.90;;;;;;5032454;28;20241;-62
2023/12/04 12:17:19;;;;;;;9.15;6.10;;;4.70;99.90;;;;;;5032302;28;20187;-62
2023/12/04 12:19:45;;;;;;;12.45;7.25;;;4.70;99.90;;;;;;5032316;28;20183;-62
2023/12/04 12:22:11;;;;;;;11.75;7.28;;;4.70;99.90;;;;;;5014783;28;20242;-62
2023/12/04 12:24:37;;;;;;;7.95;6.03;;;4.70;99.90;;;;;;5032194;28;20651;-64
2023/12/04 12:27:04;;;;;;;18.33;9.15;;;4.70;99.90;;;;;;5032212;28;20203;-62
2023/12/04 12:29:29;;;;;;;13.73;7.78;;;4.80;99.90;;;;;;5033231;28;20568;-62
2023/12/04 12:31:55;;;;;;;7.53;6.35;;;4.80;99.90;;;;;;5035492;28;20190;-62
2023/12/04 12:34:21;;;;;;;7.18;5.97;;;5.00;99.90;;;;;;5035858;28;20667;-63
2023/12/04 12:36:47;;;;;;;9.25;6.82;;;4.80;99.90;;;;;;5035799;28;20532;-61
2023/12/04 12:39:14;;;;;;;8.07;6.25;;;4.90;99.90;;;;;;5035688;28;20186;-64
2023/12/04 12:41:39;;;;;;;8.70;6.38;;;4.80;99.90;;;;;;5018235;28;20176;-64
2023/12/04 12:44:05;;;;;;;9.50;6.57;;;4.70;99.90;;;;;;5035739;28;20182;-64
2023/12/04 12:46:31;;;;;;;8.75;6.35;;;4.70;99.90;;;;;;5035444;28;20234;-64
2023/12/04 12:48:58;;;;;;;10.55;7.00;;;4.70;99.90;;;;;;5017565;28;20202;-64
2023/12/04 12:51:24;;;;;;;10.02;7.70;;;4.70;99.90;;;;;;5035252;28;20700;-62